Time;durP1;ratioP1;P1;durP2;ratioP2;P2;SDS_P1;SDS_P2;PMS_P1;PMS_P2;Temp;Humidity;BMP_temperature;BMP_pressure;BME280_temperature;BME280_humidity;BME280_pressure;Samples;Min_cycle;Max_cycle;Signal;HPM_P1;HPM_P2
2023/07/28 00:02:09;;;;;;;2.45;1.40;;;;;;;;;;6282797;28;20052;-80
2023/07/28 00:05:11;;;;;;;2.38;1.63;;;;;;;;;;6258783;28;20115;-79
2023/07/28 00:08:12;;;;;;;1.90;1.50;;;;;;;;;;6251963;28;20675;-79
2023/07/28 00:11:15;;;;;;;2.63;1.52;;;;;;;;;;6240764;28;20499;-79
2023/07/28 00:14:17;;;;;;;3.08;1.52;;;;;;;;;;6255141;28;20714;-80
2023/07/28 00:17:18;;;;;;;3.17;1.70;;;;;;;;;;6254707;28;20427;-79
2023/07/28 00:20:20;;;;;;;2.38;1.50;;;;;;;;;;6240010;28;20041;-81
2023/07/28 00:23:22;;;;;;;2.37;1.40;;;;;;;;;;6233377;28;20049;-81
2023/07/28 00:26:25;;;;;;;2.85;1.30;;;;;;;;;;6241000;28;20052;-82
2023/07/28 00:29:26;;;;;;;2.17;1.33;;;;;;;;;;6226273;28;20041;-79
2023/07/28 00:32:29;;;;;;;1.50;1.13;;;;;;;;;;6227022;28;20045;-78
2023/07/28 00:35:31;;;;;;;2.47;1.30;;;;;;;;;;6242952;28;20056;-80
2023/07/28 00:38:33;;;;;;;1.73;1.20;;;;;;;;;;6247026;28;20056;-81
2023/07/28 00:41:34;;;;;;;2.70;1.33;;;;;;;;;;6256728;28;20124;-80
2023/07/28 00:44:36;;;;;;;3.78;1.25;;;;;;;;;;6256684;28;20068;-81
2023/07/28 00:47:38;;;;;;;6.50;1.38;;;;;;;;;;6249187;28;20511;-82
2023/07/28 00:50:45;;;;;;;1.30;0.85;;;;;;;;;;6245190;28;20059;-80
2023/07/28 00:53:47;;;;;;;1.08;0.82;;;;;;;;;;6255050;28;20526;-81
2023/07/28 00:56:49;;;;;;;0.90;0.77;;;;;;;;;;6238919;28;20041;-80
2023/07/28 00:59:51;;;;;;;3.30;1.15;;;;;;;;;;6240697;28;20041;-80
2023/07/28 01:02:53;;;;;;;2.78;1.10;;;;;;;;;;6255080;28;20051;-79
2023/07/28 01:06:09;;;;;;;1.67;0.70;;;;;;;;;;6249534;28;20081;-81
2023/07/28 01:09:18;;;;;;;7.20;1.23;;;;;;;;;;6241080;28;20056;-81
2023/07/28 01:12:20;;;;;;;1.38;0.80;;;;;;;;;;6252623;28;20041;-79
2023/07/28 01:15:22;;;;;;;0.88;0.70;;;;;;;;;;6245087;28;20051;-80
2023/07/28 01:18:24;;;;;;;1.63;0.85;;;;;;;;;;6234707;28;20045;-79
2023/07/28 01:21:30;;;;;;;0.70;0.52;;;;;;;;;;6240751;28;20041;-79
2023/07/28 01:24:46;;;;;;;1.30;0.73;;;;;;;;;;6252655;28;20260;-82
2023/07/28 01:27:50;;;;;;;1.13;0.80;;;;;;;;;;6249891;28;20414;-80
2023/07/28 01:30:52;;;;;;;2.00;0.90;;;;;;;;;;6246010;28;20045;-80
2023/07/28 01:33:53;;;;;;;1.73;0.70;;;;;;;;;;6257993;28;20090;-81
2023/07/28 01:36:55;;;;;;;0.98;0.70;;;;;;;;;;6238186;28;20055;-80
2023/07/28 01:39:59;;;;;;;1.42;0.75;;;;;;;;;;6239902;28;20057;-79
2023/07/28 01:43:01;;;;;;;1.17;0.65;;;;;;;;;;6256057;28;20048;-79
2023/07/28 01:46:03;;;;;;;0.70;0.70;;;;;;;;;;6247726;28;20404;-81
2023/07/28 01:49:04;;;;;;;0.63;0.63;;;;;;;;;;6242405;28;20046;-80
2023/07/28 01:52:06;;;;;;;2.38;0.77;;;;;;;;;;6254980;28;20530;-80
2023/07/28 01:55:08;;;;;;;1.70;0.98;;;;;;;;;;6251345;28;20067;-81
2023/07/28 01:58:10;;;;;;;1.63;1.00;;;;;;;;;;6255178;28;20053;-79
2023/07/28 02:01:14;;;;;;;1.88;0.98;;;;;;;;;;6257322;28;20442;-80
2023/07/28 02:04:16;;;;;;;1.75;1.10;;;;;;;;;;6260318;28;20045;-80
2023/07/28 02:07:18;;;;;;;1.40;1.10;;;;;;;;;;6243475;28;20055;-82
2023/07/28 02:10:21;;;;;;;2.97;1.13;;;;;;;;;;6241671;28;20127;-80
2023/07/28 02:13:23;;;;;;;;;;;;;;;;;;6259572;28;20048;-82
2023/07/28 02:16:27;;;;;;;1.95;1.02;;;;;;;;;;6262154;28;19921;-81
2023/07/28 02:19:29;;;;;;;2.00;1.10;;;;;;;;;;6258184;28;20049;-79
2023/07/28 02:22:30;;;;;;;1.23;1.00;;;;;;;;;;6241706;28;20060;-80
2023/07/28 02:25:32;;;;;;;2.20;1.00;;;;;;;;;;6261586;28;20052;-82
2023/07/28 02:28:34;;;;;;;1.73;1.30;;;;;;;;;;6245208;28;20044;-79
2023/07/28 02:31:36;;;;;;;2.47;1.30;;;;;;;;;;6267157;28;20048;-81
2023/07/28 02:34:37;;;;;;;1.73;1.40;;;;;;;;;;6256972;28;20045;-79
2023/07/28 02:37:39;;;;;;;1.27;1.17;;;;;;;;;;6263727;28;20119;-79
2023/07/28 02:40:42;;;;;;;2.22;1.10;;;;;;;;;;6265490;28;20052;-80
2023/07/28 02:43:44;;;;;;;;;;;;;;;;;;6243134;28;20383;-81
2023/07/28 02:46:45;;;;;;;1.20;0.63;;;;;;;;;;6249330;28;19935;-81
2023/07/28 02:49:47;;;;;;;1.17;0.52;;;;;;;;;;6240566;28;20514;-82
2023/07/28 02:52:49;;;;;;;0.98;0.60;;;;;;;;;;6242857;28;20095;-82
2023/07/28 02:55:50;;;;;;;0.52;0.52;;;;;;;;;;6226143;28;20360;-80
2023/07/28 02:58:52;;;;;;;1.00;0.90;;;;;;;;;;6243134;28;20044;-80
2023/07/28 03:01:54;;;;;;;1.40;1.30;;;;;;;;;;6245328;28;20045;-82
2023/07/28 03:04:56;;;;;;;1.92;1.33;;;;;;;;;;6242608;28;20045;-79
2023/07/28 03:07:58;;;;;;;1.88;1.48;;;;;;;;;;6258763;28;20049;-82
2023/07/28 03:11:02;;;;;;;2.10;1.80;;;;;;;;;;6255121;28;20041;-80
2023/07/28 03:14:04;;;;;;;2.33;1.90;;;;;;;;;;6256635;28;20431;-81
2023/07/28 03:17:05;;;;;;;1.52;1.40;;;;;;;;;;6257083;28;20048;-78
2023/07/28 03:20:08;;;;;;;4.10;2.07;;;;;;;;;;6232239;28;20574;-79
2023/07/28 03:23:10;;;;;;;2.87;1.77;;;;;;;;;;6232529;28;20152;-81
2023/07/28 03:26:11;;;;;;;1.77;1.60;;;;;;;;;;6247958;28;20362;-79
2023/07/28 03:29:13;;;;;;;3.20;1.88;;;;;;;;;;6256177;28;20076;-80
2023/07/28 03:32:15;;;;;;;1.75;1.58;;;;;;;;;;6249907;28;20049;-81
2023/07/28 03:35:17;;;;;;;2.55;1.83;;;;;;;;;;6229237;28;20045;-82
2023/07/28 03:38:25;;;;;;;1.95;1.75;;;;;;;;;;6261310;28;20050;-79
2023/07/28 03:41:27;;;;;;;2.45;2.20;;;;;;;;;;6242082;28;20040;-81
2023/07/28 03:44:29;;;;;;;1.92;1.83;;;;;;;;;;6253622;28;20075;-81
2023/07/28 03:47:31;;;;;;;3.00;1.55;;;;;;;;;;6248320;28;20038;-80
2023/07/28 03:50:33;;;;;;;1.90;1.20;;;;;;;;;;6263519;28;20049;-79
2023/07/28 03:53:35;;;;;;;1.60;1.50;;;;;;;;;;6247459;28;20667;-80
2023/07/28 03:56:37;;;;;;;1.90;1.40;;;;;;;;;;6241610;28;20070;-77
2023/07/28 03:59:40;;;;;;;1.83;1.50;;;;;;;;;;6236612;28;20498;-79
2023/07/28 04:02:42;;;;;;;1.70;1.50;;;;;;;;;;6248144;28;20133;-80
2023/07/28 04:05:44;;;;;;;2.65;1.58;;;;;;;;;;6232253;28;20064;-78
2023/07/28 04:08:45;;;;;;;1.73;1.60;;;;;;;;;;6237731;28;20720;-75
2023/07/28 04:11:47;;;;;;;1.95;1.75;;;;;;;;;;6237212;28;20041;-77
2023/07/28 04:14:49;;;;;;;2.80;1.90;;;;;;;;;;6253432;28;20045;-79
2023/07/28 04:17:50;;;;;;;3.35;1.90;;;;;;;;;;6236935;28;20055;-78
2023/07/28 04:20:52;;;;;;;1.90;1.70;;;;;;;;;;6264813;28;20443;-78
2023/07/28 04:23:55;;;;;;;2.20;2.00;;;;;;;;;;6257054;28;20044;-79
2023/07/28 04:26:57;;;;;;;2.60;2.28;;;;;;;;;;6240015;28;20053;-78
2023/07/28 04:29:59;;;;;;;2.70;1.80;;;;;;;;;;6247075;28;20055;-80
2023/07/28 04:33:01;;;;;;;3.45;2.08;;;;;;;;;;6260707;28;20057;-81
2023/07/28 04:36:09;;;;;;;2.80;2.08;;;;;;;;;;6254983;28;20044;-79
2023/07/28 04:39:10;;;;;;;3.15;1.80;;;;;;;;;;6241189;28;20040;-82
2023/07/28 04:42:12;;;;;;;4.43;2.38;;;;;;;;;;6252016;28;20400;-81
2023/07/28 04:45:18;;;;;;;1.95;1.75;;;;;;;;;;6243669;28;20141;-80
2023/07/28 04:48:21;;;;;;;2.87;1.87;;;;;;;;;;6239148;28;20129;-78
2023/07/28 04:51:23;;;;;;;2.42;1.85;;;;;;;;;;6258496;28;20041;-81
2023/07/28 04:54:50;;;;;;;3.88;2.13;;;;;;;;;;6251342;28;20482;-79
2023/07/28 04:57:53;;;;;;;2.00;1.80;;;;;;;;;;6229835;28;20090;-80
2023/07/28 05:00:56;;;;;;;2.47;1.60;;;;;;;;;;6251042;28;20049;-78
2023/07/28 05:03:58;;;;;;;2.35;1.60;;;;;;;;;;6253841;28;20460;-77
2023/07/28 05:07:04;;;;;;;2.00;1.45;;;;;;;;;;6231803;28;20569;-77
2023/07/28 05:10:06;;;;;;;2.35;1.42;;;;;;;;;;6231833;28;20131;-79
2023/07/28 05:13:08;;;;;;;3.38;1.50;;;;;;;;;;6238079;28;20727;-78
2023/07/28 05:16:11;;;;;;;1.42;1.33;;;;;;;;;;6252583;28;20415;-77
2023/07/28 05:19:35;;;;;;;1.65;1.45;;;;;;;;;;6223716;28;20044;-79
2023/07/28 05:22:57;;;;;;;1.40;1.27;;;;;;;;;;6251682;28;20458;-77
2023/07/28 05:26:02;;;;;;;1.60;1.30;;;;;;;;;;6236138;28;20053;-79
2023/07/28 05:29:04;;;;;;;3.00;1.25;;;;;;;;;;6239163;28;20392;-81
2023/07/28 05:32:06;;;;;;;2.05;1.05;;;;;;;;;;6253766;28;20108;-77
2023/07/28 05:35:34;;;;;;;1.63;0.98;;;;;;;;;;6241371;28;20041;-80
2023/07/28 05:38:36;;;;;;;1.30;1.10;;;;;;;;;;6240115;28;20050;-81
2023/07/28 05:41:37;;;;;;;0.90;0.90;;;;;;;;;;6236597;28;20037;-79
2023/07/28 05:44:41;;;;;;;0.98;0.88;;;;;;;;;;6253253;28;20045;-80
2023/07/28 05:47:43;;;;;;;2.85;1.15;;;;;;;;;;6256028;28;20084;-80
2023/07/28 05:50:44;;;;;;;2.80;1.40;;;;;;;;;;6233900;28;20041;-81
2023/07/28 05:53:46;;;;;;;1.42;0.73;;;;;;;;;;6258461;28;20041;-81
2023/07/28 05:56:48;;;;;;;1.25;1.15;;;;;;;;;;6249798;28;20044;-81
2023/07/28 05:59:49;;;;;;;1.05;1.00;;;;;;;;;;6242164;28;20045;-79
2023/07/28 06:02:51;;;;;;;2.00;0.88;;;;;;;;;;6240755;28;20053;-80
2023/07/28 06:06:16;;;;;;;1.08;0.98;;;;;;;;;;6239411;28;20506;-80
2023/07/28 06:09:18;;;;;;;0.90;0.90;;;;;;;;;;6250663;28;20049;-80
2023/07/28 06:12:20;;;;;;;1.67;0.75;;;;;;;;;;6239003;28;20044;-80
2023/07/28 06:15:22;;;;;;;0.88;0.68;;;;;;;;;;6261503;28;20041;-81
2023/07/28 06:18:24;;;;;;;0.90;0.63;;;;;;;;;;6250885;28;20120;-79
2023/07/28 06:21:38;;;;;;;1.33;0.70;;;;;;;;;;6236974;28;20087;-77
2023/07/28 06:24:40;;;;;;;0.98;0.57;;;;;;;;;;6233894;28;20060;-77
2023/07/28 06:27:42;;;;;;;2.63;0.60;;;;;;;;;;6217137;28;20045;-77
2023/07/28 06:30:45;;;;;;;1.08;0.55;;;;;;;;;;6235439;28;20095;-76
2023/07/28 06:33:47;;;;;;;1.33;0.80;;;;;;;;;;6215948;28;20052;-77
2023/07/28 06:36:49;;;;;;;1.80;0.90;;;;;;;;;;6255011;28;20695;-78
2023/07/28 06:39:51;;;;;;;2.13;0.75;;;;;;;;;;6249414;28;20033;-76
2023/07/28 06:42:52;;;;;;;0.70;0.60;;;;;;;;;;6217551;28;20520;-77
2023/07/28 06:45:55;;;;;;;0.60;0.60;;;;;;;;;;6236895;28;20132;-79
2023/07/28 06:48:57;;;;;;;0.47;0.47;;;;;;;;;;6252430;28;20778;-78
2023/07/28 06:51:59;;;;;;;0.50;0.40;;;;;;;;;;6246692;28;20128;-77
2023/07/28 06:55:01;;;;;;;0.50;0.50;;;;;;;;;;6224890;28;20045;-75
2023/07/28 06:58:03;;;;;;;1.37;0.63;;;;;;;;;;6220304;28;20132;-78
2023/07/28 07:01:05;;;;;;;0.60;0.60;;;;;;;;;;6242194;28;20372;-77
2023/07/28 07:04:07;;;;;;;0.28;0.28;;;;;;;;;;6248659;28;20411;-77
2023/07/28 07:07:09;;;;;;;0.30;0.20;;;;;;;;;;6237248;28;20047;-77
2023/07/28 07:10:10;;;;;;;0.20;0.20;;;;;;;;;;6262131;28;20064;-76
2023/07/28 07:13:13;;;;;;;0.30;0.20;;;;;;;;;;6234648;28;20045;-76
2023/07/28 07:16:16;;;;;;;0.82;0.30;;;;;;;;;;6245109;28;20058;-76
2023/07/28 07:19:25;;;;;;;1.60;0.20;;;;;;;;;;6242511;28;20037;-76
2023/07/28 07:22:28;;;;;;;0.10;0.10;;;;;;;;;;6237416;28;20118;-80
2023/07/28 07:25:29;;;;;;;0.30;0.30;;;;;;;;;;6255300;28;20135;-78
2023/07/28 07:28:31;;;;;;;0.73;0.20;;;;;;;;;;6242242;28;20052;-78
2023/07/28 07:31:33;;;;;;;0.47;0.20;;;;;;;;;;6260858;28;20512;-78
2023/07/28 07:34:37;;;;;;;1.77;0.20;;;;;;;;;;6245769;28;20169;-76
2023/07/28 07:37:40;;;;;;;0.10;0.10;;;;;;;;;;6263562;28;20048;-79
2023/07/28 07:40:42;;;;;;;0.30;0.10;;;;;;;;;;6262175;28;20068;-78
2023/07/28 07:43:43;;;;;;;0.60;0.10;;;;;;;;;;6264109;28;20045;-79
2023/07/28 07:46:45;;;;;;;0.25;0.15;;;;;;;;;;6259617;28;20107;-79
2023/07/28 07:49:47;;;;;;;0.28;0.20;;;;;;;;;;6257221;28;20049;-79
2023/07/28 07:52:49;;;;;;;0.37;0.10;;;;;;;;;;6261878;28;20537;-79
2023/07/28 07:55:51;;;;;;;1.80;0.20;;;;;;;;;;6261162;28;20036;-80
2023/07/28 07:58:52;;;;;;;0.10;0.10;;;;;;;;;;6252927;28;20041;-80
2023/07/28 08:01:54;;;;;;;2.15;0.22;;;;;;;;;;6259862;28;20147;-79
2023/07/28 08:04:56;;;;;;;0.60;0.20;;;;;;;;;;6262637;28;20114;-78
2023/07/28 08:07:58;;;;;;;0.47;0.20;;;;;;;;;;6263563;28;20122;-78
2023/07/28 08:10:59;;;;;;;0.77;0.20;;;;;;;;;;6251406;28;20159;-78
2023/07/28 08:14:01;;;;;;;0.90;0.20;;;;;;;;;;6268946;28;20132;-78
2023/07/28 08:17:04;;;;;;;1.25;0.30;;;;;;;;;;6243942;28;20060;-80
2023/07/28 08:20:07;;;;;;;2.33;0.40;;;;;;;;;;6255631;28;20048;-79
2023/07/28 08:23:09;;;;;;;0.30;0.30;;;;;;;;;;6258902;28;20042;-77
2023/07/28 08:26:11;;;;;;;2.17;0.30;;;;;;;;;;6239998;28;20045;-80
2023/07/28 08:29:12;;;;;;;0.43;0.20;;;;;;;;;;6263062;28;20060;-80
2023/07/28 08:32:14;;;;;;;0.63;0.30;;;;;;;;;;6257383;28;20042;-79
2023/07/28 08:35:16;;;;;;;1.35;0.30;;;;;;;;;;6253370;28;21228;-80
2023/07/28 08:38:17;;;;;;;0.40;0.40;;;;;;;;;;6256221;28;20320;-81
2023/07/28 08:41:19;;;;;;;1.02;0.30;;;;;;;;;;6258554;28;20048;-79
2023/07/28 08:44:21;;;;;;;1.02;0.50;;;;;;;;;;6256434;28;20049;-78
2023/07/28 08:47:24;;;;;;;0.57;0.30;;;;;;;;;;6257431;28;20056;-78
2023/07/28 08:50:26;;;;;;;0.47;0.30;;;;;;;;;;6243224;28;20448;-80
2023/07/28 08:53:27;;;;;;;0.65;0.30;;;;;;;;;;6242227;28;20044;-79
2023/07/28 08:56:29;;;;;;;1.23;0.30;;;;;;;;;;6237342;28;20049;-78
2023/07/28 08:59:31;;;;;;;0.43;0.20;;;;;;;;;;6257081;28;20045;-79
2023/07/28 09:02:32;;;;;;;0.22;0.22;;;;;;;;;;6244357;28;20052;-79
2023/07/28 09:05:35;;;;;;;0.85;0.30;;;;;;;;;;6254496;28;20123;-81
2023/07/28 09:08:37;;;;;;;1.13;0.40;;;;;;;;;;6256361;28;20087;-78
2023/07/28 09:11:49;;;;;;;0.30;0.30;;;;;;;;;;6257934;28;20041;-80
2023/07/28 09:14:56;;;;;;;0.30;0.30;;;;;;;;;;6257928;28;20040;-80
2023/07/28 09:18:00;;;;;;;0.50;0.30;;;;;;;;;;6245716;28;20060;-78
2023/07/28 09:21:02;;;;;;;0.88;0.30;;;;;;;;;;6257872;28;20060;-78
2023/07/28 09:24:06;;;;;;;0.47;0.47;;;;;;;;;;6255681;28;20053;-77
2023/07/28 09:27:22;;;;;;;0.35;0.35;;;;;;;;;;6261312;28;20049;-79
2023/07/28 09:30:25;;;;;;;0.40;0.40;;;;;;;;;;6257643;28;20459;-78
2023/07/28 09:33:32;;;;;;;1.08;0.40;;;;;;;;;;6224312;28;20049;-79
2023/07/28 09:36:34;;;;;;;0.52;0.52;;;;;;;;;;6252625;28;20416;-80
2023/07/28 09:39:36;;;;;;;1.05;0.60;;;;;;;;;;6252717;28;20038;-79
2023/07/28 09:42:44;;;;;;;0.20;0.20;;;;;;;;;;6256112;28;20114;-79
2023/07/28 09:45:46;;;;;;;0.30;0.30;;;;;;;;;;6243744;28;20037;-77
2023/07/28 09:48:49;;;;;;;2.70;0.33;;;;;;;;;;6254557;28;20060;-79
2023/07/28 09:51:54;;;;;;;0.45;0.30;;;;;;;;;;6255263;28;20041;-76
2023/07/28 09:54:58;;;;;;;1.17;0.63;;;;;;;;;;6255476;28;20044;-77
2023/07/28 09:58:04;;;;;;;0.80;0.57;;;;;;;;;;6233968;28;20076;-78
2023/07/28 10:01:06;;;;;;;1.00;0.55;;;;;;;;;;6251194;28;20056;-79
2023/07/28 10:04:07;;;;;;;0.55;0.52;;;;;;;;;;6258111;28;20083;-79
2023/07/28 10:07:10;;;;;;;0.75;0.60;;;;;;;;;;6238021;28;20107;-78
2023/07/28 10:10:13;;;;;;;0.60;0.60;;;;;;;;;;6241059;28;20116;-78
2023/07/28 10:13:21;;;;;;;0.45;0.45;;;;;;;;;;6238499;28;21088;-79
2023/07/28 10:16:39;;;;;;;1.23;0.50;;;;;;;;;;6233795;28;20045;-78
2023/07/28 10:19:40;;;;;;;1.05;0.60;;;;;;;;;;6253198;28;20055;-76
2023/07/28 10:22:45;;;;;;;1.40;0.70;;;;;;;;;;6256350;28;20207;-78
2023/07/28 10:25:56;;;;;;;0.85;0.73;;;;;;;;;;6249891;28;20052;-77
2023/07/28 10:29:08;;;;;;;0.88;0.88;;;;;;;;;;6231872;28;20057;-78
2023/07/28 10:32:26;;;;;;;0.55;0.50;;;;;;;;;;6230700;28;20045;-77
2023/07/28 10:35:30;;;;;;;0.73;0.60;;;;;;;;;;6243113;28;20112;-78
2023/07/28 10:38:35;;;;;;;1.63;0.70;;;;;;;;;;6247861;28;20049;-77
2023/07/28 10:41:38;;;;;;;0.50;0.50;;;;;;;;;;6230257;28;20091;-79
2023/07/28 10:44:40;;;;;;;1.40;0.60;;;;;;;;;;6249504;28;20049;-76
2023/07/28 10:47:43;;;;;;;1.08;0.80;;;;;;;;;;6230312;28;20057;-77
2023/07/28 10:50:44;;;;;;;;;;;;;;;;;;6253539;28;20030;-77
2023/07/28 10:53:49;;;;;;;0.77;0.52;;;;;;;;;;6234900;28;19928;-78
2023/07/28 10:56:51;;;;;;;0.63;0.63;;;;;;;;;;6247698;28;20562;-77
2023/07/28 10:59:53;;;;;;;0.55;0.55;;;;;;;;;;6240895;28;20049;-80
2023/07/28 11:02:55;;;;;;;2.28;0.93;;;;;;;;;;6256044;28;20049;-78
2023/07/28 11:05:57;;;;;;;1.23;0.88;;;;;;;;;;6248778;28;20037;-78
2023/07/28 11:08:59;;;;;;;1.50;0.80;;;;;;;;;;6247367;28;20060;-77
2023/07/28 11:12:00;;;;;;;1.83;0.77;;;;;;;;;;6253776;28;20076;-80
2023/07/28 11:15:03;;;;;;;1.60;0.83;;;;;;;;;;6257604;28;20118;-80
2023/07/28 11:18:05;;;;;;;1.83;0.80;;;;;;;;;;6250062;28;20052;-80
2023/07/28 11:21:06;;;;;;;1.48;1.00;;;;;;;;;;6258546;28;20179;-80
2023/07/28 11:24:09;;;;;;;0.60;0.60;;;;;;;;;;6245807;28;20052;-79
2023/07/28 11:27:11;;;;;;;;;;;;;;;;;;6233475;28;20500;-78
2023/07/28 11:30:17;;;;;;;0.60;0.60;;;;;;;;;;6236500;28;20315;-80
2023/07/28 11:33:19;;;;;;;3.88;0.50;;;;;;;;;;6252688;28;20044;-79
2023/07/28 11:36:24;;;;;;;0.40;0.40;;;;;;;;;;6251588;28;20538;-79
2023/07/28 11:39:26;;;;;;;0.98;0.50;;;;;;;;;;6257586;28;20053;-79
2023/07/28 11:42:29;;;;;;;0.20;0.20;;;;;;;;;;6255860;28;20049;-77
2023/07/28 11:45:31;;;;;;;0.20;0.20;;;;;;;;;;6255226;28;20050;-76
2023/07/28 11:48:32;;;;;;;0.40;0.40;;;;;;;;;;6229587;28;20589;-77
2023/07/28 11:51:43;;;;;;;0.20;0.20;;;;;;;;;;6239798;28;20088;-76
2023/07/28 11:54:45;;;;;;;0.30;0.30;;;;;;;;;;6256765;28;20388;-79
2023/07/28 11:57:48;;;;;;;1.90;0.38;;;;;;;;;;6256644;28;20049;-78
2023/07/28 12:00:49;;;;;;;0.65;0.65;;;;;;;;;;6239678;28;20041;-77
2023/07/28 12:03:51;;;;;;;0.70;0.70;;;;;;;;;;6259504;28;20041;-78
2023/07/28 12:07:08;;;;;;;1.27;0.50;;;;;;;;;;6256548;28;20045;-79
2023/07/28 12:10:10;;;;;;;0.85;0.70;;;;;;;;;;6257564;28;20636;-75
2023/07/28 12:13:12;;;;;;;0.60;0.60;;;;;;;;;;6239809;28;20041;-75
2023/07/28 12:16:43;;;;;;;1.02;0.65;;;;;;;;;;6256182;28;21911;-76
2023/07/28 12:20:10;;;;;;;2.17;0.70;;;;;;;;;;6257440;28;20122;-78
2023/07/28 12:23:16;;;;;;;1.00;0.60;;;;;;;;;;6253852;28;20037;-78
2023/07/28 12:26:21;;;;;;;0.50;0.50;;;;;;;;;;6241847;28;20483;-79
2023/07/28 12:29:23;;;;;;;0.80;0.60;;;;;;;;;;6265968;28;20041;-74
2023/07/28 12:32:31;;;;;;;0.32;0.32;;;;;;;;;;6250202;28;20040;-77
2023/07/28 12:35:36;;;;;;;0.52;0.50;;;;;;;;;;6250397;28;20475;-79
2023/07/28 12:38:41;;;;;;;0.60;0.60;;;;;;;;;;6246055;28;20451;-79
2023/07/28 12:41:44;;;;;;;1.00;0.60;;;;;;;;;;6242162;28;20519;-76
2023/07/28 12:45:06;;;;;;;0.60;0.60;;;;;;;;;;6244324;28;20037;-78
2023/07/28 12:48:11;;;;;;;1.00;0.55;;;;;;;;;;6251239;28;20045;-79
2023/07/28 12:51:21;;;;;;;0.60;0.60;;;;;;;;;;6255171;28;20053;-81
2023/07/28 12:54:26;;;;;;;0.85;0.80;;;;;;;;;;6240485;28;20037;-78
2023/07/28 12:57:28;;;;;;;0.77;0.77;;;;;;;;;;6257051;28;20491;-77
2023/07/28 13:00:30;;;;;;;0.85;0.80;;;;;;;;;;6238301;28;20052;-78
2023/07/28 13:03:34;;;;;;;0.60;0.60;;;;;;;;;;6243225;28;20072;-78
2023/07/28 13:06:36;;;;;;;0.50;0.50;;;;;;;;;;6251506;28;20046;-79
2023/07/28 13:09:38;;;;;;;0.85;0.60;;;;;;;;;;6254278;28;20073;-79
2023/07/28 13:12:43;;;;;;;0.80;0.80;;;;;;;;;;6248417;28;20063;-78
2023/07/28 13:15:47;;;;;;;0.90;0.90;;;;;;;;;;6253289;28;20072;-77
2023/07/28 13:18:49;;;;;;;1.20;1.10;;;;;;;;;;6251515;28;20045;-76
2023/07/28 13:21:54;;;;;;;1.80;1.17;;;;;;;;;;6236063;28;20091;-77
2023/07/28 13:24:56;;;;;;;1.40;1.30;;;;;;;;;;6249769;28;20041;-78
2023/07/28 13:27:57;;;;;;;1.35;1.25;;;;;;;;;;6252261;28;20064;-77
2023/07/28 13:30:59;;;;;;;1.05;1.05;;;;;;;;;;6248634;28;20044;-79
2023/07/28 13:34:00;;;;;;;1.67;1.00;;;;;;;;;;6248353;28;20140;-77
2023/07/28 13:37:02;;;;;;;2.72;1.17;;;;;;;;;;6252234;28;20056;-78
2023/07/28 13:40:05;;;;;;;1.15;1.02;;;;;;;;;;6250476;28;20122;-77
2023/07/28 13:43:09;;;;;;;2.50;1.08;;;;;;;;;;6245968;28;20041;-79
2023/07/28 13:46:18;;;;;;;1.20;1.10;;;;;;;;;;6236126;28;20037;-81
2023/07/28 13:49:21;;;;;;;1.08;1.00;;;;;;;;;;6253420;28;20665;-78
2023/07/28 13:52:22;;;;;;;1.27;1.17;;;;;;;;;;6250728;28;20053;-77
2023/07/28 13:55:24;;;;;;;2.58;1.42;;;;;;;;;;6250916;28;20056;-79
2023/07/28 13:58:29;;;;;;;1.52;1.42;;;;;;;;;;6249804;28;20041;-76
2023/07/28 14:01:30;;;;;;;1.10;1.00;;;;;;;;;;6253286;28;20076;-79
2023/07/28 14:04:32;;;;;;;1.38;1.20;;;;;;;;;;6246461;28;20384;-80
2023/07/28 14:07:34;;;;;;;1.65;1.17;;;;;;;;;;6256054;28;20063;-78
2023/07/28 14:10:38;;;;;;;2.03;1.40;;;;;;;;;;6257072;28;20107;-79
2023/07/28 14:13:39;;;;;;;2.85;1.50;;;;;;;;;;6254864;28;20045;-79
2023/07/28 14:16:42;;;;;;;1.50;1.40;;;;;;;;;;6267319;28;20052;-76
2023/07/28 14:19:44;;;;;;;2.17;1.80;;;;;;;;;;6252022;28;20045;-77
2023/07/28 14:22:46;;;;;;;2.22;1.80;;;;;;;;;;6261993;28;20048;-77
2023/07/28 14:25:48;;;;;;;1.88;1.63;;;;;;;;;;6253550;28;20075;-79
2023/07/28 14:28:49;;;;;;;2.80;1.80;;;;;;;;;;6258731;28;20183;-76
2023/07/28 14:31:51;;;;;;;2.20;2.00;;;;;;;;;;6257634;28;20072;-78
2023/07/28 14:34:53;;;;;;;2.40;1.93;;;;;;;;;;6257813;28;20127;-78
2023/07/28 14:37:55;;;;;;;2.67;2.42;;;;;;;;;;6252321;28;20444;-77
2023/07/28 14:40:56;;;;;;;3.00;2.40;;;;;;;;;;6251535;28;20126;-78
2023/07/28 14:43:58;;;;;;;2.45;2.20;;;;;;;;;;6257834;28;20053;-79
2023/07/28 14:47:00;;;;;;;3.47;2.50;;;;;;;;;;6243099;28;20056;-78
2023/07/28 14:50:02;;;;;;;5.50;2.17;;;;;;;;;;6254867;28;20568;-77
2023/07/28 14:53:27;;;;;;;4.53;2.30;;;;;;;;;;6243783;28;20045;-78
2023/07/28 14:56:29;;;;;;;3.13;2.30;;;;;;;;;;6252258;28;20049;-79
2023/07/28 14:59:31;;;;;;;2.80;2.25;;;;;;;;;;6238780;28;20065;-78
2023/07/28 15:02:33;;;;;;;3.28;2.10;;;;;;;;;;6241745;28;20044;-78
2023/07/28 15:05:35;;;;;;;2.53;2.33;;;;;;;;;;6256719;28;20124;-78
2023/07/28 15:08:36;;;;;;;3.15;2.28;;;;;;;;;;6236120;28;20060;-77
2023/07/28 15:11:38;;;;;;;3.92;3.00;;;;;;;;;;6231641;28;20052;-77
2023/07/28 15:14:40;;;;;;;2.70;2.42;;;;;;;;;;6238313;28;20056;-76
2023/07/28 15:17:41;;;;;;;3.25;2.42;;;;;;;;;;6251427;28;20045;-78
2023/07/28 15:20:43;;;;;;;3.72;2.53;;;;;;;;;;6253409;28;20049;-78
2023/07/28 15:23:45;;;;;;;3.08;2.78;;;;;;;;;;6258220;28;20041;-78
2023/07/28 15:26:51;;;;;;;5.18;2.85;;;;;;;;;;6250949;28;20073;-77
2023/07/28 15:29:53;;;;;;;2.97;2.50;;;;;;;;;;6258938;28;20544;-79
2023/07/28 15:32:54;;;;;;;3.13;2.78;;;;;;;;;;6253967;28;20071;-80
2023/07/28 15:35:57;;;;;;;3.92;2.92;;;;;;;;;;6252437;28;20406;-77
2023/07/28 15:38:58;;;;;;;3.63;2.65;;;;;;;;;;6235836;28;20057;-80
2023/07/28 15:42:00;;;;;;;3.58;2.90;;;;;;;;;;6256471;28;20060;-77
2023/07/28 15:45:02;;;;;;;4.65;3.15;;;;;;;;;;6256885;28;20079;-78
2023/07/28 15:48:04;;;;;;;5.25;3.00;;;;;;;;;;6254045;28;20049;-77
2023/07/28 15:51:06;;;;;;;3.40;2.80;;;;;;;;;;6253837;28;20167;-80
2023/07/28 15:54:08;;;;;;;3.00;2.50;;;;;;;;;;6273497;28;20063;-78
2023/07/28 15:57:09;;;;;;;2.93;2.53;;;;;;;;;;6249781;28;20049;-76
2023/07/28 16:00:14;;;;;;;3.00;2.58;;;;;;;;;;6249285;28;20490;-77
2023/07/28 16:03:15;;;;;;;2.85;2.55;;;;;;;;;;6255256;28;20056;-78
2023/07/28 16:06:17;;;;;;;2.78;2.58;;;;;;;;;;6243497;28;20041;-78
2023/07/28 16:09:19;;;;;;;3.78;2.60;;;;;;;;;;6254158;28;20041;-77
2023/07/28 16:12:20;;;;;;;3.33;2.53;;;;;;;;;;6242157;28;20052;-79
2023/07/28 16:15:23;;;;;;;2.85;2.53;;;;;;;;;;6264128;28;20507;-80
2023/07/28 16:18:27;;;;;;;3.45;3.13;;;;;;;;;;6256519;28;20087;-79
2023/07/28 16:21:28;;;;;;;5.47;2.80;;;;;;;;;;6253395;28;20041;-80
2023/07/28 16:24:30;;;;;;;3.55;3.00;;;;;;;;;;6258378;28;20055;-80
2023/07/28 16:27:32;;;;;;;3.35;2.63;;;;;;;;;;6229088;28;20052;-79
2023/07/28 16:30:34;;;;;;;3.08;2.60;;;;;;;;;;6254613;28;20099;-78
2023/07/28 16:33:36;;;;;;;4.22;2.47;;;;;;;;;;6255760;28;20525;-78
2023/07/28 16:36:37;;;;;;;3.00;2.53;;;;;;;;;;6258532;28;20091;-78
2023/07/28 16:39:39;;;;;;;4.88;2.80;;;;;;;;;;6226428;28;20072;-79
2023/07/28 16:42:41;;;;;;;3.25;2.95;;;;;;;;;;6250486;28;20065;-78
2023/07/28 16:45:46;;;;;;;5.25;3.03;;;;;;;;;;6250156;28;20076;-80
2023/07/28 16:48:47;;;;;;;4.70;3.63;;;;;;;;;;6261365;28;20057;-77
2023/07/28 16:51:49;;;;;;;3.75;3.00;;;;;;;;;;6266415;28;20052;-78
2023/07/28 16:54:50;;;;;;;3.33;2.67;;;;;;;;;;6257096;28;20060;-77
2023/07/28 16:57:52;;;;;;;4.53;3.40;;;;;;;;;;6253908;28;20056;-81
2023/07/28 17:00:54;;;;;;;3.67;3.20;;;;;;;;;;6258354;28;20048;-79
2023/07/28 17:03:56;;;;;;;3.30;3.00;;;;;;;;;;6237734;28;20067;-81
2023/07/28 17:06:57;;;;;;;4.32;2.80;;;;;;;;;;6244790;28;20053;-78
2023/07/28 17:09:59;;;;;;;3.85;3.10;;;;;;;;;;6256309;28;20151;-80
2023/07/28 17:13:01;;;;;;;5.40;2.63;;;;;;;;;;6239036;28;20659;-79
2023/07/28 17:16:03;;;;;;;3.38;2.03;;;;;;;;;;6254567;28;20265;-78
2023/07/28 17:19:05;;;;;;;3.75;2.58;;;;;;;;;;6239550;28;20045;-79
2023/07/28 17:22:07;;;;;;;3.03;2.72;;;;;;;;;;6258016;28;20420;-78
2023/07/28 17:25:10;;;;;;;2.92;2.60;;;;;;;;;;6256020;28;20049;-78
2023/07/28 17:28:13;;;;;;;2.70;2.30;;;;;;;;;;6233899;28;20041;-78
2023/07/28 17:31:15;;;;;;;2.58;2.00;;;;;;;;;;6215261;28;20489;-78
2023/07/28 17:34:17;;;;;;;4.30;2.10;;;;;;;;;;6247962;28;20045;-78
2023/07/28 17:37:19;;;;;;;1.77;1.67;;;;;;;;;;6235144;28;20111;-78
2023/07/28 17:40:21;;;;;;;3.80;1.87;;;;;;;;;;6252382;28;20092;-77
2023/07/28 17:43:22;;;;;;;2.55;2.10;;;;;;;;;;6255454;28;20045;-78
2023/07/28 17:46:24;;;;;;;2.10;1.90;;;;;;;;;;6262306;28;20064;-78
2023/07/28 17:49:26;;;;;;;3.83;2.60;;;;;;;;;;6262488;28;20056;-79
2023/07/28 17:52:28;;;;;;;3.28;2.60;;;;;;;;;;6262022;28;20041;-80
2023/07/28 17:55:29;;;;;;;4.10;2.80;;;;;;;;;;6256865;28;20037;-78
2023/07/28 17:58:31;;;;;;;3.53;2.22;;;;;;;;;;6241613;28;20064;-80
2023/07/28 18:01:33;;;;;;;4.28;2.10;;;;;;;;;;6242050;28;20052;-79
2023/07/28 18:04:35;;;;;;;1.88;1.77;;;;;;;;;;6243650;28;20052;-79
2023/07/28 18:07:36;;;;;;;3.03;2.00;;;;;;;;;;6254413;28;20065;-77
2023/07/28 18:10:39;;;;;;;1.92;1.67;;;;;;;;;;6251734;28;20045;-77
2023/07/28 18:13:42;;;;;;;3.08;2.17;;;;;;;;;;6225229;28;20114;-77
2023/07/28 18:16:45;;;;;;;5.40;2.85;;;;;;;;;;6240069;28;20041;-80
2023/07/28 18:19:48;;;;;;;4.07;2.85;;;;;;;;;;6238605;28;20048;-79